aviador You're here:

RJOO Decoded Metar

OSAKA in JAPAN
Report Time2015-03-29 22:00:00
UTC Time2015-03-29 22:18:36
Flight Rules vfr VFR
Wind320° at 04 kt
W.Decomp.*RWY 32: 4.0 kt HW 0.5 kt RCW
W.Rank320° ranks 1
Current wind is below 320° avg. (6.5)
Visibility9999 m
Phenomena:N/A
Clouds:N/A
Expected CloudBase > 800 ft AGL from Temp-Dew spread
CeilingNone
Temp08°C (ISA -7)
Dew Point06°C (87% RH)
AAT5.6°C
QNH1021 hPa
Density Alt-925 ft
Elevation49 ft
Report Wrong Elevation
Raw Report
RJOO 292200Z 32004KT 290V360 CAVOK 08/06 Q1021 RMK A3015=

Extra information for RJOO:More info

Metar Taf Metar & Taf Last 4 Metars F.Rules Stats Wind Profile Meteogram Temp Stats Airport Information Weather charts Add Link Nearby VenuesMetar ALERT Operation Metar Decoded Social comments